createdAt,value
2023-03-21T06:03:04.941Z,500.00
2023-03-21T06:04:04.999Z,500.00
2023-03-21T06:05:05.923Z,500.00
2023-03-21T06:06:05.956Z,500.00
2023-03-21T06:07:06.027Z,500.00
2023-03-21T06:08:06.017Z,500.00
2023-03-21T06:09:06.033Z,400.00
2023-03-21T06:10:06.038Z,400.00
2023-03-21T06:11:06.088Z,400.00
2023-03-21T06:12:06.181Z,400.00
2023-03-21T06:13:06.209Z,400.00
2023-03-21T06:14:06.277Z,400.00
2023-03-21T06:15:06.315Z,400.00
2023-03-21T06:16:06.425Z,400.00
2023-03-21T06:17:06.368Z,400.00
2023-03-21T06:18:06.412Z,400.00
2023-03-21T06:19:06.468Z,400.00
2023-03-21T06:20:06.473Z,400.00
2023-03-21T06:21:06.491Z,434.00
2023-03-21T06:22:06.508Z,470.00
2023-03-21T06:23:06.557Z,503.00
2023-03-21T06:24:06.573Z,502.00
2023-03-21T06:25:06.576Z,503.00
2023-03-21T06:26:05.608Z,502.00
2023-03-21T06:27:06.622Z,503.00
2023-03-21T06:28:06.727Z,500.00
2023-03-21T06:29:06.734Z,500.00
2023-03-21T06:30:06.696Z,500.00
2023-03-21T06:31:05.740Z,504.00
2023-03-21T06:32:06.719Z,500.00
2023-03-21T06:33:06.732Z,504.00
2023-03-21T06:34:06.785Z,501.00
2023-03-21T06:35:06.809Z,500.00
2023-03-21T06:36:06.865Z,502.00
2023-03-21T06:37:05.821Z,504.00
2023-03-21T06:38:06.818Z,502.00
2023-03-21T06:39:06.852Z,500.00
2023-03-21T06:40:06.854Z,500.00
2023-03-21T06:41:06.893Z,506.00
2023-03-21T06:42:06.892Z,503.00
2023-03-21T06:43:06.918Z,503.00
2023-03-21T06:44:06.940Z,503.00
2023-03-21T06:45:06.950Z,507.00
2023-03-21T06:46:06.951Z,504.00
2023-03-21T06:47:07.060Z,501.00
2023-03-21T06:48:09.174Z,502.00
2023-03-21T06:49:06.977Z,518.00
2023-03-21T06:50:06.997Z,516.00
2023-03-21T06:51:07.026Z,504.00
2023-03-21T06:52:06.964Z,504.00
2023-03-21T06:53:07.189Z,500.00
2023-03-21T06:54:06.949Z,510.00
2023-03-21T06:55:06.963Z,500.00
2023-03-21T06:56:06.929Z,506.00
2023-03-21T06:57:06.926Z,505.00
2023-03-21T06:58:06.909Z,506.00
2023-03-21T06:59:06.918Z,508.00
2023-03-21T07:00:05.985Z,506.00
2023-03-21T07:01:07.052Z,506.00
2023-03-21T07:02:06.968Z,505.00
2023-03-21T07:03:06.914Z,512.00
2023-03-21T07:04:06.890Z,505.00
2023-03-21T07:05:06.868Z,503.00
2023-03-21T07:06:06.870Z,511.00
2023-03-21T07:07:05.879Z,510.00
2023-03-21T07:08:05.843Z,501.00
2023-03-21T07:09:06.900Z,511.00
2023-03-21T07:10:06.855Z,509.00
2023-03-21T07:11:06.840Z,507.00
2023-03-21T07:12:06.837Z,514.00
2023-03-21T07:13:05.810Z,516.00
2023-03-21T07:14:06.848Z,505.00
2023-03-21T07:15:06.830Z,514.00
2023-03-21T07:16:06.954Z,507.00
2023-03-21T07:17:06.805Z,502.00
2023-03-21T07:18:05.796Z,501.00
2023-03-21T07:19:05.785Z,507.00
2023-03-21T07:20:06.770Z,504.00
2023-03-21T07:21:05.762Z,501.00
2023-03-21T07:22:06.763Z,500.00
2023-03-21T07:23:06.765Z,502.00
2023-03-21T07:24:06.736Z,504.00
2023-03-21T07:25:06.828Z,509.00
2023-03-21T07:26:05.739Z,512.00
2023-03-21T07:27:06.729Z,505.00
2023-03-21T07:28:06.711Z,502.00
2023-03-21T07:29:06.714Z,510.00
2023-03-21T07:30:05.698Z,506.00
2023-03-21T07:31:06.701Z,502.00
2023-03-21T07:32:06.686Z,505.00
2023-03-21T07:33:06.685Z,503.00
2023-03-21T07:34:06.669Z,513.00
2023-03-21T07:35:06.677Z,501.00
2023-03-21T07:36:06.679Z,509.00
2023-03-21T07:37:06.650Z,502.00
2023-03-21T07:38:05.653Z,511.00
2023-03-21T07:39:06.653Z,511.00
2023-03-21T07:40:05.650Z,501.00
2023-03-21T07:41:05.624Z,500.00
2023-03-21T07:42:06.606Z,504.00
2023-03-21T07:43:06.605Z,500.00
2023-03-21T07:45:05.589Z,503.00
2023-03-21T07:46:06.655Z,510.00
2023-03-21T07:47:05.576Z,510.00
2023-03-21T07:48:06.669Z,514.00
2023-03-21T07:49:06.571Z,506.00
2023-03-21T07:50:06.575Z,506.00
2023-03-21T07:51:06.690Z,500.00
2023-03-21T07:52:06.551Z,504.00
2023-03-21T07:53:06.538Z,502.00
2023-03-21T07:54:06.527Z,504.00
2023-03-21T07:55:07.036Z,500.00
2023-03-21T07:56:06.530Z,508.00
2023-03-21T07:57:06.514Z,513.00
2023-03-21T07:58:06.512Z,519.00
2023-03-21T07:59:06.514Z,521.00
2023-03-21T08:00:06.505Z,517.00
2023-03-21T08:01:06.498Z,515.00
2023-03-21T08:02:06.502Z,509.00
2023-03-21T08:03:06.574Z,508.00
2023-03-21T08:04:06.460Z,508.00
2023-03-21T08:05:06.457Z,508.00
2023-03-21T08:06:05.460Z,503.00
2023-03-21T08:07:06.460Z,512.00
2023-03-21T08:08:06.445Z,514.00
2023-03-21T08:09:06.433Z,517.00
2023-03-21T08:10:05.434Z,511.00
2023-03-21T08:11:06.456Z,510.00
2023-03-21T08:12:06.407Z,511.00
2023-03-21T08:13:06.398Z,520.00
2023-03-21T08:14:05.420Z,516.00
2023-03-21T08:15:06.449Z,516.00
2023-03-21T08:16:06.475Z,519.00
2023-03-21T08:17:06.613Z,525.00
2023-03-21T08:18:05.497Z,524.00
2023-03-21T08:19:06.499Z,531.00
2023-03-21T08:20:05.500Z,533.00
2023-03-21T08:21:08.261Z,531.00
2023-03-21T08:22:06.500Z,535.00
2023-03-21T08:23:06.518Z,529.00
2023-03-21T08:24:06.490Z,531.00
2023-03-21T08:25:06.499Z,537.00
2023-03-21T08:26:06.480Z,526.00
2023-03-21T08:27:06.501Z,523.00
2023-03-21T08:28:06.462Z,534.00
2023-03-21T08:29:05.460Z,530.00
2023-03-21T08:30:06.462Z,530.00
2023-03-21T08:31:06.702Z,528.00
2023-03-21T08:32:06.426Z,532.00
2023-03-21T08:33:06.428Z,535.00
2023-03-21T08:34:05.428Z,526.00
2023-03-21T08:35:05.417Z,528.00
2023-03-21T08:36:06.427Z,529.00
2023-03-21T08:37:05.400Z,535.00
2023-03-21T08:38:05.391Z,542.00
2023-03-21T08:39:06.401Z,534.00
2023-03-21T08:40:06.443Z,535.00
2023-03-21T08:41:05.373Z,540.00
2023-03-21T08:42:06.366Z,532.00
2023-03-21T08:43:06.377Z,538.00
2023-03-21T08:44:06.364Z,547.00
2023-03-21T08:45:06.510Z,543.00
2023-03-21T08:46:06.493Z,544.00
2023-03-21T08:47:06.331Z,539.00
2023-03-21T08:48:06.399Z,536.00
2023-03-21T08:49:06.307Z,529.00
2023-03-21T08:50:05.528Z,521.00
2023-03-21T08:51:06.316Z,504.00
2023-03-21T08:52:05.286Z,501.00
2023-03-21T08:53:06.308Z,510.00
2023-03-21T08:54:06.293Z,527.00
2023-03-21T08:55:05.291Z,528.00
2023-03-21T08:56:05.263Z,530.00
2023-03-21T08:57:06.259Z,539.00
2023-03-21T08:58:06.265Z,534.00
2023-03-21T08:59:06.259Z,533.00
2023-03-21T09:00:06.269Z,509.00
2023-03-21T09:01:06.230Z,503.00
2023-03-21T09:02:06.362Z,500.00
2023-03-21T09:03:05.338Z,510.00
2023-03-21T09:04:06.198Z,514.00
2023-03-21T09:05:05.200Z,525.00
2023-03-21T09:06:06.198Z,521.00
2023-03-21T09:07:06.219Z,533.00
2023-03-21T09:08:06.176Z,529.00
2023-03-21T09:09:05.177Z,522.00
2023-03-21T09:10:22.650Z,525.00
2023-03-21T09:11:06.167Z,525.00
2023-03-21T09:12:06.152Z,526.00
2023-03-21T09:13:06.136Z,527.00
2023-03-21T09:14:06.047Z,528.00
2023-03-21T09:15:06.155Z,533.00
2023-03-21T09:16:06.149Z,525.00
2023-03-21T09:17:05.111Z,522.00
2023-03-21T09:18:06.091Z,524.00
2023-03-21T09:19:05.189Z,519.00
2023-03-21T09:20:06.105Z,515.00
2023-03-21T09:21:06.124Z,518.00
2023-03-21T09:22:06.081Z,509.00
2023-03-21T09:23:06.131Z,522.00
2023-03-21T09:24:06.050Z,524.00
2023-03-21T09:25:06.111Z,519.00
2023-03-21T09:26:06.069Z,532.00
2023-03-21T09:27:06.055Z,537.00
2023-03-21T09:28:06.035Z,537.00
2023-03-21T09:29:05.024Z,543.00
2023-03-21T09:30:05.026Z,556.00
2023-03-21T09:31:06.094Z,544.00
2023-03-21T09:32:05.013Z,548.00
2023-03-21T09:33:05.005Z,539.00
2023-03-21T09:34:05.993Z,552.00
2023-03-21T09:35:05.987Z,550.00
2023-03-21T09:36:06.025Z,538.00
2023-03-21T09:37:05.980Z,541.00
2023-03-21T09:38:05.970Z,547.00
2023-03-21T09:39:05.968Z,555.00
2023-03-21T09:40:05.956Z,547.00
2023-03-21T09:41:05.948Z,542.00
2023-03-21T09:42:05.944Z,516.00
2023-03-21T09:43:05.980Z,535.00
2023-03-21T09:44:05.022Z,544.00
2023-03-21T09:45:05.922Z,535.00
2023-03-21T09:46:05.924Z,533.00
2023-03-21T09:47:06.090Z,543.00
2023-03-21T09:48:06.079Z,539.00
2023-03-21T09:49:05.023Z,538.00
2023-03-21T09:50:14.006Z,541.00
2023-03-21T09:51:06.082Z,542.00
2023-03-21T09:52:06.075Z,542.00
2023-03-21T09:53:05.050Z,543.00
2023-03-21T09:54:05.053Z,546.00
2023-03-21T09:55:06.046Z,550.00
2023-03-21T09:56:06.048Z,541.00
2023-03-21T09:57:06.041Z,544.00
2023-03-21T09:58:06.032Z,556.00
2023-03-21T09:59:05.023Z,563.00
2023-03-21T10:00:05.009Z,564.00
2023-03-21T10:01:05.049Z,557.00
2023-03-21T10:02:05.991Z,572.00
2023-03-21T10:03:06.022Z,567.00
2023-03-21T10:04:06.058Z,547.00
2023-03-21T10:05:05.984Z,544.00
2023-03-21T10:06:05.987Z,548.00
2023-03-21T10:07:05.965Z,559.00
2023-03-21T10:08:05.965Z,552.00
2023-03-21T10:09:05.965Z,552.00
2023-03-21T10:10:05.946Z,551.00
2023-03-21T10:11:05.949Z,559.00
2023-03-21T10:12:05.942Z,560.00
2023-03-21T10:13:05.920Z,559.00
2023-03-21T10:14:05.914Z,557.00
2023-03-21T10:15:05.960Z,550.00
2023-03-21T10:16:05.918Z,556.00
2023-03-21T10:17:05.915Z,562.00
2023-03-21T10:18:05.891Z,553.00
2023-03-21T10:19:05.917Z,547.00
2023-03-21T10:20:05.883Z,566.00
2023-03-21T10:21:05.879Z,600.00
2023-03-21T10:22:05.944Z,580.00
2023-03-21T10:23:05.867Z,578.00
2023-03-21T10:24:05.864Z,568.00
2023-03-21T10:25:05.851Z,563.00
2023-03-21T10:26:05.849Z,557.00
2023-03-21T10:27:05.852Z,559.00
2023-03-21T10:28:04.847Z,559.00
2023-03-21T10:29:04.885Z,563.00
2023-03-21T10:30:05.822Z,556.00
2023-03-21T10:31:05.825Z,549.00
2023-03-21T10:32:04.883Z,553.00
2023-03-21T10:33:05.895Z,538.00
2023-03-21T10:34:05.793Z,536.00
2023-03-21T10:35:06.526Z,542.00
2023-03-21T10:36:04.831Z,519.00
2023-03-21T10:37:05.772Z,500.00
2023-03-21T10:38:05.755Z,500.00
2023-03-21T10:39:05.779Z,500.00
2023-03-21T10:40:05.741Z,508.00
2023-03-21T10:41:05.744Z,507.00
2023-03-21T10:42:05.731Z,500.00
2023-03-21T10:43:05.728Z,500.00
2023-03-21T10:44:04.740Z,500.00
2023-03-21T10:45:05.784Z,516.00
2023-03-21T10:46:06.222Z,510.00
2023-03-21T10:47:05.141Z,516.00
2023-03-21T10:48:06.303Z,514.00
2023-03-21T10:49:06.129Z,507.00
2023-03-21T10:50:08.086Z,501.00
2023-03-21T10:51:05.048Z,508.00
2023-03-21T10:52:05.068Z,508.00
2023-03-21T10:53:06.001Z,500.00
2023-03-21T10:54:06.005Z,504.00
2023-03-21T10:55:06.009Z,509.00
2023-03-21T10:56:05.997Z,520.00
2023-03-21T10:57:05.996Z,519.00
2023-03-21T10:58:04.982Z,506.00
2023-03-21T10:59:05.969Z,512.00
2023-03-21T11:00:05.965Z,512.00
2023-03-21T11:01:05.015Z,520.00
2023-03-21T11:02:06.080Z,522.00
2023-03-21T11:03:06.063Z,523.00
2023-03-21T11:04:05.930Z,526.00
2023-03-21T11:05:05.937Z,521.00
2023-03-21T11:06:05.936Z,523.00
2023-03-21T11:07:04.949Z,523.00
2023-03-21T11:08:05.902Z,529.00
2023-03-21T11:09:05.897Z,535.00
2023-03-21T11:10:05.893Z,545.00
2023-03-21T11:11:05.890Z,529.00
2023-03-21T11:12:05.879Z,535.00
2023-03-21T11:13:05.887Z,530.00
2023-03-21T11:14:05.858Z,539.00
2023-03-21T11:15:04.861Z,543.00
2023-03-21T11:16:04.841Z,539.00
2023-03-21T11:17:05.948Z,542.00
2023-03-21T11:18:05.923Z,539.00
2023-03-21T11:19:05.974Z,531.00
2023-03-21T11:20:06.059Z,537.00
2023-03-21T11:21:06.085Z,542.00
2023-03-21T11:22:06.131Z,548.00
2023-03-21T11:23:06.204Z,547.00
2023-03-21T11:24:07.638Z,550.00
2023-03-21T11:25:06.295Z,556.00
2023-03-21T11:26:06.327Z,560.00
2023-03-21T11:27:05.376Z,560.00
2023-03-21T11:28:06.418Z,556.00
2023-03-21T11:29:06.480Z,568.00
2023-03-21T11:30:06.530Z,565.00
2023-03-21T11:31:06.611Z,562.00
2023-03-21T11:32:05.636Z,571.00
2023-03-21T11:33:06.688Z,576.00
2023-03-21T11:34:06.747Z,569.00
2023-03-21T11:35:06.790Z,572.00
2023-03-21T11:36:06.871Z,568.00
2023-03-21T11:37:05.901Z,568.00
2023-03-21T11:38:06.960Z,572.00
2023-03-21T11:39:07.023Z,571.00
2023-03-21T11:40:07.053Z,571.00
2023-03-21T11:41:07.117Z,576.00
2023-03-21T11:42:07.596Z,572.00
2023-03-21T11:43:07.213Z,574.00
2023-03-21T11:44:07.294Z,570.00
2023-03-21T11:45:07.333Z,571.00
2023-03-21T11:46:07.448Z,570.00
2023-03-21T11:47:07.592Z,569.00
2023-03-21T11:48:07.565Z,566.00
2023-03-21T11:49:07.579Z,559.00
2023-03-21T11:50:06.650Z,557.00
2023-03-21T11:51:06.694Z,564.00
2023-03-21T11:52:08.107Z,568.00
2023-03-21T11:53:07.826Z,565.00
2023-03-21T11:54:07.887Z,561.00
2023-03-21T11:55:07.994Z,566.00
2023-03-21T11:56:07.001Z,561.00
2023-03-21T11:57:08.071Z,563.00
2023-03-21T11:58:14.404Z,567.00
2023-03-21T11:59:08.257Z,568.00
2023-03-21T12:00:08.102Z,569.00
2023-03-21T12:01:08.091Z,570.00
2023-03-21T12:02:08.090Z,571.00
2023-03-21T12:03:07.145Z,572.00
2023-03-21T12:04:07.116Z,576.00
2023-03-21T12:05:07.072Z,572.00
2023-03-21T12:06:08.076Z,576.00
2023-03-21T12:07:08.052Z,576.00
2023-03-21T12:08:08.064Z,581.00
2023-03-21T12:09:08.044Z,588.00
2023-03-21T12:10:08.043Z,588.00
2023-03-21T12:11:08.070Z,589.00
2023-03-21T12:12:08.023Z,592.00
2023-03-21T12:13:08.023Z,598.00
2023-03-21T12:14:08.031Z,602.00
2023-03-21T12:15:08.002Z,599.00
2023-03-21T12:16:08.157Z,603.00
2023-03-21T12:17:08.008Z,614.00
2023-03-21T12:18:08.063Z,611.00
2023-03-21T12:19:07.003Z,613.00
2023-03-21T12:20:06.982Z,606.00
2023-03-21T12:21:07.017Z,616.00
2023-03-21T12:22:08.083Z,614.00
2023-03-21T12:23:08.237Z,614.00
2023-03-21T12:24:08.173Z,618.00
2023-03-21T12:25:08.226Z,621.00
2023-03-21T12:26:07.284Z,626.00
2023-03-21T12:27:08.365Z,627.00
2023-03-21T12:28:08.415Z,628.00
2023-03-21T12:29:08.478Z,626.00
2023-03-21T12:30:08.486Z,631.00
2023-03-21T12:31:08.630Z,632.00
2023-03-21T12:32:08.617Z,642.00
2023-03-21T12:33:08.662Z,637.00
2023-03-21T12:34:08.784Z,640.00
2023-03-21T12:35:08.795Z,649.00
2023-03-21T12:36:08.859Z,646.00
2023-03-21T12:37:09.111Z,644.00
2023-03-21T12:38:08.970Z,650.00
2023-03-21T12:39:09.046Z,647.00
2023-03-21T12:40:09.123Z,653.00
2023-03-21T12:41:09.149Z,650.00
2023-03-21T12:42:08.620Z,651.00
2023-03-21T12:43:08.426Z,652.00
2023-03-21T12:44:08.336Z,654.00
2023-03-21T12:45:15.425Z,652.00
2023-03-21T12:46:09.388Z,652.00
2023-03-21T12:47:09.413Z,653.00
2023-03-21T12:48:09.427Z,653.00
2023-03-21T12:49:09.370Z,650.00
2023-03-21T12:50:08.431Z,654.00
2023-03-21T12:51:08.360Z,647.00
2023-03-21T12:52:09.371Z,644.00
2023-03-21T12:53:09.331Z,645.00
2023-03-21T12:54:09.337Z,647.00
2023-03-21T12:55:09.403Z,651.00
2023-03-21T12:56:09.324Z,640.00
2023-03-21T12:57:09.306Z,642.00
2023-03-21T12:58:09.311Z,644.00
2023-03-21T12:59:09.413Z,642.00
2023-03-21T13:00:09.293Z,638.00
2023-03-21T13:01:09.392Z,636.00
2023-03-21T13:02:09.287Z,635.00
2023-03-21T13:03:09.261Z,633.00
2023-03-21T13:04:09.343Z,634.00
2023-03-21T13:05:09.261Z,630.00
2023-03-21T13:06:09.265Z,627.00
2023-03-21T13:07:09.259Z,628.00
2023-03-21T13:08:09.239Z,619.00
2023-03-21T13:09:09.241Z,627.00
2023-03-21T13:10:10.108Z,625.00
2023-03-21T13:11:09.277Z,623.00
2023-03-21T13:12:09.370Z,618.00
2023-03-21T13:13:09.430Z,610.00
2023-03-21T13:14:09.471Z,617.00
2023-03-21T13:15:18.312Z,616.00
2023-03-21T13:16:09.564Z,616.00
2023-03-21T13:17:09.646Z,613.00
2023-03-21T13:18:09.512Z,616.00
2023-03-21T13:19:09.510Z,612.00
2023-03-21T13:20:09.491Z,613.00
2023-03-21T13:21:09.493Z,606.00
2023-03-21T13:22:09.558Z,607.00
2023-03-21T13:23:09.492Z,609.00
2023-03-21T13:24:09.487Z,609.00
2023-03-21T13:25:09.471Z,610.00
2023-03-21T13:26:09.463Z,609.00
2023-03-21T13:27:09.463Z,607.00
2023-03-21T13:28:08.498Z,607.00
2023-03-21T13:29:09.437Z,606.00
2023-03-21T13:30:09.606Z,609.00
2023-03-21T13:31:09.542Z,609.00
2023-03-21T13:32:08.557Z,609.00
2023-03-21T13:33:09.411Z,604.00
2023-03-21T13:34:09.403Z,609.00
2023-03-21T13:35:09.391Z,604.00
2023-03-21T13:36:09.523Z,612.00
2023-03-21T13:37:09.395Z,669.00
2023-03-21T13:38:08.387Z,729.00
2023-03-21T13:39:09.365Z,662.00
2023-03-21T13:40:09.375Z,636.00
2023-03-21T13:41:09.351Z,637.00
2023-03-21T13:42:09.384Z,642.00
2023-03-21T13:43:10.189Z,653.00
2023-03-21T13:44:09.403Z,649.00
2023-03-21T13:45:09.395Z,665.00
2023-03-21T13:46:09.456Z,707.00
2023-03-21T13:47:09.518Z,723.00
2023-03-21T13:48:09.574Z,718.00
2023-03-21T13:49:09.381Z,710.00
2023-03-21T13:50:09.394Z,710.00
2023-03-21T13:51:09.372Z,730.00
2023-03-21T13:52:09.359Z,744.00
2023-03-21T13:53:09.352Z,738.00
2023-03-21T13:54:09.332Z,755.00
2023-03-21T13:55:09.333Z,774.00
2023-03-21T13:56:09.323Z,770.00
2023-03-21T13:57:09.321Z,766.00
2023-03-21T13:58:09.348Z,764.00
2023-03-21T13:59:09.598Z,776.00
2023-03-21T14:00:09.338Z,758.00
2023-03-21T14:01:09.342Z,760.00
2023-03-21T14:02:09.276Z,794.00
2023-03-21T14:03:09.413Z,786.00
2023-03-21T14:04:09.425Z,766.00
2023-03-21T14:05:09.330Z,759.00
2023-03-21T14:06:08.343Z,778.00
2023-03-21T14:07:09.298Z,812.00
2023-03-21T14:08:15.606Z,795.00
2023-03-21T14:09:09.225Z,796.00
2023-03-21T14:10:09.232Z,797.00
2023-03-21T14:11:09.223Z,807.00
2023-03-21T14:12:09.218Z,826.00
2023-03-21T14:13:08.224Z,847.00
2023-03-21T14:14:09.195Z,863.00
2023-03-21T14:15:16.279Z,833.00
2023-03-21T14:16:09.173Z,834.00
2023-03-21T14:17:09.177Z,821.00
2023-03-21T14:18:21.224Z,841.00
2023-03-21T14:19:09.281Z,836.00
2023-03-21T14:20:11.369Z,851.00
2023-03-21T14:21:11.787Z,837.00
2023-03-21T14:22:09.138Z,835.00
2023-03-21T14:23:08.143Z,845.00
2023-03-21T14:24:09.125Z,855.00
2023-03-21T14:25:09.124Z,877.00
2023-03-21T14:26:08.120Z,900.00
2023-03-21T14:27:09.109Z,929.00
2023-03-21T14:28:08.092Z,917.00
2023-03-21T14:29:22.930Z,897.00
2023-03-21T14:30:09.093Z,897.00
2023-03-21T14:31:09.133Z,898.00
2023-03-21T14:32:09.073Z,901.00
2023-03-21T14:33:09.076Z,913.00
2023-03-21T14:34:09.054Z,916.00
2023-03-21T14:35:08.170Z,900.00
2023-03-21T14:36:08.085Z,897.00
2023-03-21T14:37:08.045Z,906.00
2023-03-21T14:38:09.058Z,928.00
2023-03-21T14:39:09.055Z,917.00
2023-03-21T14:40:09.072Z,926.00
2023-03-21T14:41:09.015Z,926.00
2023-03-21T14:42:08.012Z,922.00
2023-03-21T14:43:09.015Z,907.00
2023-03-21T14:44:09.012Z,920.00
2023-03-21T14:45:08.009Z,915.00
2023-03-21T14:46:09.002Z,953.00
2023-03-21T14:47:07.976Z,955.00
2023-03-21T14:48:08.031Z,958.00
2023-03-21T14:49:07.961Z,962.00
2023-03-21T14:50:08.947Z,960.00
2023-03-21T14:51:09.083Z,957.00
2023-03-21T14:52:07.944Z,952.00
2023-03-21T14:53:08.951Z,931.00
2023-03-21T14:54:09.017Z,933.00
2023-03-21T14:55:08.915Z,886.00
2023-03-21T14:56:08.928Z,886.00
2023-03-21T14:57:08.912Z,906.00
2023-03-21T14:58:08.899Z,911.00
2023-03-21T14:59:09.020Z,911.00
2023-03-21T15:00:08.893Z,930.00
2023-03-21T15:01:08.936Z,922.00
2023-03-21T15:02:08.877Z,935.00
2023-03-21T15:03:08.990Z,929.00
2023-03-21T15:04:08.872Z,938.00
2023-03-21T15:05:08.945Z,953.00
2023-03-21T15:06:08.862Z,978.00
2023-03-21T15:07:08.973Z,947.00
2023-03-21T15:08:08.858Z,973.00
2023-03-21T15:09:11.122Z,1005.00
2023-03-21T15:10:08.847Z,1026.00
2023-03-21T15:11:08.910Z,1048.00
2023-03-21T15:12:07.838Z,1045.00
2023-03-21T15:13:08.822Z,1043.00
2023-03-21T15:14:08.905Z,1026.00
2023-03-21T15:15:07.808Z,1013.00
2023-03-21T15:16:08.871Z,1003.00
2023-03-21T15:17:08.787Z,1000.00
2023-03-21T15:18:08.791Z,991.00
2023-03-21T15:19:08.863Z,975.00
2023-03-21T15:20:08.806Z,986.00
2023-03-21T15:21:07.756Z,971.00
2023-03-21T15:22:07.776Z,966.00
2023-03-21T15:23:08.880Z,958.00
2023-03-21T15:24:08.745Z,966.00
2023-03-21T15:25:07.731Z,958.00
2023-03-21T15:26:07.711Z,935.00
2023-03-21T15:27:08.719Z,888.00
2023-03-21T15:28:07.713Z,906.00
2023-03-21T15:29:07.705Z,880.00
2023-03-21T15:30:08.716Z,832.00
2023-03-21T15:31:08.857Z,838.00
2023-03-21T15:32:08.709Z,799.00
2023-03-21T15:33:08.679Z,804.00
2023-03-21T15:34:08.673Z,795.00
2023-03-21T15:35:08.669Z,770.00
2023-03-21T15:36:08.693Z,792.00
2023-03-21T15:37:08.649Z,809.00
2023-03-21T15:38:08.659Z,775.00
2023-03-21T15:39:08.820Z,756.00
2023-03-21T15:40:08.619Z,750.00
2023-03-21T15:41:07.614Z,729.00
2023-03-21T15:42:07.606Z,733.00
2023-03-21T15:43:07.609Z,712.00
2023-03-21T15:44:08.608Z,701.00
2023-03-21T15:45:08.587Z,725.00
2023-03-21T15:46:08.603Z,735.00
2023-03-21T15:47:08.665Z,795.00
2023-03-21T15:48:07.608Z,868.00
2023-03-21T15:49:07.569Z,881.00
2023-03-21T15:50:07.562Z,948.00
2023-03-21T15:51:07.585Z,1084.00
2023-03-21T15:52:08.545Z,1027.00
2023-03-21T15:53:07.527Z,1046.00
2023-03-21T15:54:09.475Z,1053.00
2023-03-21T15:55:08.867Z,1118.00
2023-03-21T15:56:08.783Z,1133.00
2023-03-21T15:57:07.834Z,1187.00
2023-03-21T15:58:07.891Z,1258.00
2023-03-21T15:59:08.935Z,1298.00
2023-03-21T16:00:09.002Z,1361.00
2023-03-21T16:01:09.088Z,1422.00
2023-03-21T16:02:09.162Z,1368.00
2023-03-21T16:03:09.228Z,1399.00
2023-03-21T16:04:09.238Z,1410.00
2023-03-21T16:05:09.294Z,1388.00
2023-03-21T16:06:10.984Z,1423.00
2023-03-21T16:07:09.345Z,1459.00
2023-03-21T16:08:09.364Z,1494.00
2023-03-21T16:09:08.347Z,1480.00
2023-03-21T16:10:09.326Z,1434.00
2023-03-21T16:11:09.433Z,1409.00
2023-03-21T16:12:09.318Z,1411.00
2023-03-21T16:13:08.312Z,1413.00
2023-03-21T16:14:08.293Z,1425.00
2023-03-21T16:15:09.294Z,1445.00
2023-03-21T16:16:09.286Z,1424.00
2023-03-21T16:17:09.282Z,1464.00
2023-03-21T16:18:11.356Z,1454.00
2023-03-21T16:19:08.339Z,1449.00
2023-03-21T16:20:09.254Z,1449.00
2023-03-21T16:21:09.251Z,1446.00
2023-03-21T16:22:09.256Z,1443.00
2023-03-21T16:23:09.252Z,1430.00
2023-03-21T16:24:10.342Z,1415.00
2023-03-21T16:25:08.217Z,1415.00
2023-03-21T16:26:08.215Z,1402.00
2023-03-21T16:27:09.232Z,1396.00
2023-03-21T16:28:09.191Z,1425.00
2023-03-21T16:29:09.201Z,1410.00
